createdAt,value
2018-03-25T00:00:30.466Z,4.40
2018-03-25T00:02:58.156Z,4.40
2018-03-25T00:05:25.746Z,4.10
2018-03-25T00:07:53.328Z,3.90
2018-03-25T00:10:20.942Z,3.80
2018-03-25T00:12:49.305Z,3.70
2018-03-25T00:15:16.938Z,3.70
2018-03-25T00:17:44.585Z,3.70
2018-03-25T00:20:12.155Z,3.60
2018-03-25T00:22:39.755Z,3.60
2018-03-25T00:25:08.095Z,3.50
2018-03-25T00:27:35.699Z,3.50
2018-03-25T00:30:04.026Z,3.40
2018-03-25T00:32:31.625Z,3.40
2018-03-25T00:34:59.237Z,3.40
2018-03-25T00:37:27.007Z,3.40
2018-03-25T00:39:54.778Z,3.40
2018-03-25T00:42:22.445Z,3.30
2018-03-25T00:44:50.045Z,3.30
2018-03-25T00:47:18.386Z,3.30
2018-03-25T00:49:46.187Z,3.30
2018-03-25T00:52:14.558Z,3.30
2018-03-25T00:54:42.930Z,3.60
2018-03-25T00:57:11.267Z,3.60
2018-03-25T00:59:38.875Z,3.70
2018-03-25T01:02:07.249Z,3.40
2018-03-25T01:04:35.599Z,3.20
2018-03-25T01:07:03.330Z,3.10
2018-03-25T01:09:31.090Z,3.10
2018-03-25T01:11:58.687Z,3.10
2018-03-25T01:14:26.271Z,3.40
2018-03-25T01:16:54.724Z,3.30
2018-03-25T01:19:22.444Z,3.30
2018-03-25T01:21:50.039Z,3.10
2018-03-25T01:24:17.635Z,3.00
2018-03-25T01:26:46.086Z,3.40
2018-03-25T01:29:15.194Z,3.40
2018-03-25T01:31:43.630Z,3.30
2018-03-25T01:34:11.195Z,3.30
2018-03-25T01:36:38.798Z,3.10
2018-03-25T01:39:07.345Z,2.90
2018-03-25T01:41:34.931Z,2.90
2018-03-25T01:44:03.374Z,2.80
2018-03-25T01:46:30.939Z,2.70
2018-03-25T01:48:58.560Z,2.70
2018-03-25T01:51:26.170Z,2.70
2018-03-25T01:53:53.788Z,2.70
2018-03-25T01:56:21.374Z,2.60
2018-03-25T01:58:48.982Z,2.70
2018-03-25T02:01:16.582Z,2.70
2018-03-25T02:03:44.183Z,2.80
2018-03-25T02:06:12.523Z,2.70
2018-03-25T02:08:40.286Z,2.60
2018-03-25T02:11:07.859Z,2.60
2018-03-25T02:13:35.434Z,2.60
2018-03-25T02:16:03.033Z,2.60
2018-03-25T02:18:30.708Z,2.60
2018-03-25T02:20:58.324Z,2.50
2018-03-25T02:23:26.675Z,2.70
2018-03-25T02:25:54.276Z,2.70
2018-03-25T02:28:21.839Z,2.70
2018-03-25T02:30:49.407Z,2.70
2018-03-25T02:33:17.053Z,2.60
2018-03-25T02:35:45.411Z,2.40
2018-03-25T02:38:13.764Z,2.40
2018-03-25T02:40:41.549Z,2.40
2018-03-25T02:43:09.105Z,2.40
2018-03-25T02:45:36.699Z,2.30
2018-03-25T02:48:04.269Z,2.30
2018-03-25T02:50:31.843Z,2.30
2018-03-25T02:52:59.442Z,2.20
2018-03-25T02:55:27.934Z,2.30
2018-03-25T02:57:56.455Z,2.30
2018-03-25T03:00:24.120Z,2.30
2018-03-25T03:02:51.714Z,2.40
2018-03-25T03:05:19.332Z,2.20
2018-03-25T03:07:46.958Z,2.20
2018-03-25T03:10:14.544Z,2.10
2018-03-25T03:12:42.107Z,2.20
2018-03-25T03:15:09.799Z,2.20
2018-03-25T03:17:37.373Z,2.10
2018-03-25T03:20:04.976Z,2.00
2018-03-25T03:22:32.546Z,2.00
2018-03-25T03:25:00.153Z,2.00
2018-03-25T03:27:27.734Z,2.00
2018-03-25T03:29:56.120Z,2.00
2018-03-25T03:32:23.733Z,1.90
2018-03-25T03:34:51.311Z,1.90
2018-03-25T03:37:19.703Z,1.90
2018-03-25T03:39:48.071Z,1.90
2018-03-25T03:42:16.407Z,1.90
2018-03-25T03:44:44.027Z,1.90
2018-03-25T03:47:11.643Z,1.90
2018-03-25T03:49:39.222Z,1.80
2018-03-25T03:52:07.602Z,1.70
2018-03-25T03:54:35.942Z,1.70
2018-03-25T03:57:03.542Z,1.70
2018-03-25T03:59:31.881Z,1.70
2018-03-25T04:01:59.484Z,1.70
2018-03-25T04:04:27.894Z,1.70
2018-03-25T04:06:55.627Z,1.70
2018-03-25T04:09:24.043Z,1.70
2018-03-25T04:11:51.731Z,1.70
2018-03-25T04:14:19.317Z,1.60
2018-03-25T04:16:47.672Z,1.60
2018-03-25T04:19:15.275Z,1.60
2018-03-25T04:21:42.942Z,1.60
2018-03-25T04:24:10.513Z,1.60
2018-03-25T04:26:38.107Z,1.60
2018-03-25T04:29:05.682Z,1.60
2018-03-25T04:31:33.286Z,1.50
2018-03-25T04:34:00.859Z,1.50
2018-03-25T04:36:28.443Z,1.60
2018-03-25T04:38:56.974Z,1.70
2018-03-25T04:41:24.550Z,1.70
2018-03-25T04:43:52.143Z,1.60
2018-03-25T04:46:19.826Z,1.50
2018-03-25T04:48:48.207Z,1.50
2018-03-25T04:51:16.540Z,1.40
2018-03-25T04:53:44.162Z,1.40
2018-03-25T04:56:11.854Z,1.40
2018-03-25T04:58:39.461Z,1.40
2018-03-25T05:01:07.834Z,1.40
2018-03-25T05:03:36.175Z,1.40
2018-03-25T05:06:03.766Z,1.40
2018-03-25T05:08:31.437Z,1.40
2018-03-25T05:10:59.802Z,1.50
2018-03-25T05:13:28.140Z,1.50
2018-03-25T05:15:55.726Z,1.40
2018-03-25T05:18:23.298Z,1.50
2018-03-25T05:20:51.665Z,1.80
2018-03-25T05:23:20.150Z,1.70
2018-03-25T05:25:47.902Z,1.60
2018-03-25T05:28:15.478Z,1.60
2018-03-25T05:30:43.859Z,1.50
2018-03-25T05:33:12.383Z,1.50
2018-03-25T05:35:39.946Z,1.50
2018-03-25T05:38:07.563Z,1.50
2018-03-25T05:40:36.057Z,1.60
2018-03-25T05:43:03.722Z,1.60
2018-03-25T05:45:31.415Z,1.80
2018-03-25T05:47:59.031Z,1.90
2018-03-25T05:50:26.604Z,1.90
2018-03-25T05:52:54.204Z,1.90
2018-03-25T05:55:21.807Z,1.80
2018-03-25T05:57:50.195Z,1.90
2018-03-25T06:00:17.857Z,1.90
2018-03-25T06:02:45.416Z,2.10
2018-03-25T06:05:13.030Z,2.10
2018-03-25T06:07:40.594Z,2.20
2018-03-25T06:10:08.171Z,2.40
2018-03-25T06:12:36.679Z,3.10
2018-03-25T06:15:04.284Z,3.10
2018-03-25T06:17:31.970Z,3.60
2018-03-25T06:20:00.362Z,3.80
2018-03-25T06:22:27.962Z,3.80
2018-03-25T06:24:55.599Z,4.30
2018-03-25T06:27:23.193Z,5.30
2018-03-25T06:29:50.827Z,5.90
2018-03-25T06:32:18.406Z,6.60
2018-03-25T06:34:45.971Z,7.00
2018-03-25T06:37:13.624Z,6.80
2018-03-25T06:39:41.184Z,6.40
2018-03-25T06:42:08.788Z,5.80
2018-03-25T06:44:37.121Z,5.40
2018-03-25T06:47:05.116Z,5.40
2018-03-25T06:49:32.679Z,5.50
2018-03-25T06:52:01.038Z,6.40
2018-03-25T06:54:28.623Z,6.40
2018-03-25T06:56:56.950Z,7.10
2018-03-25T06:59:24.561Z,7.10
2018-03-25T07:01:52.974Z,7.50
2018-03-25T07:04:20.607Z,7.50
2018-03-25T07:06:48.247Z,6.40
2018-03-25T07:09:16.687Z,6.20
2018-03-25T07:11:44.290Z,6.20
2018-03-25T07:14:12.668Z,6.90
2018-03-25T07:16:41.000Z,7.00
2018-03-25T07:19:08.710Z,7.00
2018-03-25T07:21:37.055Z,6.60
2018-03-25T07:24:04.692Z,6.60
2018-03-25T07:26:32.378Z,6.80
2018-03-25T07:29:00.054Z,7.00
2018-03-25T07:31:29.174Z,8.50
2018-03-25T07:33:56.755Z,8.40
2018-03-25T07:36:24.348Z,7.90
2018-03-25T07:38:51.922Z,7.70
2018-03-25T07:41:19.591Z,8.60
2018-03-25T07:43:47.923Z,9.40
2018-03-25T07:46:15.511Z,9.30
2018-03-25T07:48:43.138Z,8.60
2018-03-25T07:51:10.746Z,7.40
2018-03-25T07:53:39.159Z,7.70
2018-03-25T07:56:06.733Z,7.60
2018-03-25T07:58:34.335Z,7.40
2018-03-25T08:01:01.931Z,8.90
2018-03-25T08:03:29.540Z,10.10
2018-03-25T08:05:57.114Z,9.60
2018-03-25T08:08:24.695Z,8.00
2018-03-25T08:10:52.330Z,7.50
2018-03-25T08:13:19.910Z,7.70
2018-03-25T08:15:48.415Z,7.90
2018-03-25T08:18:15.993Z,7.80
2018-03-25T08:20:43.627Z,7.90
2018-03-25T08:23:11.224Z,8.20
2018-03-25T08:25:38.835Z,9.70
2018-03-25T08:28:06.394Z,9.90
2018-03-25T08:30:34.016Z,11.20
2018-03-25T08:33:01.599Z,11.60
2018-03-25T08:35:30.103Z,9.10
2018-03-25T08:37:57.690Z,9.10
2018-03-25T08:40:25.309Z,8.70
2018-03-25T08:42:52.896Z,9.90
2018-03-25T08:45:20.466Z,11.00
2018-03-25T08:47:48.081Z,11.50
2018-03-25T08:50:16.439Z,12.70
2018-03-25T08:52:44.031Z,12.60
2018-03-25T08:55:11.616Z,11.80
2018-03-25T08:57:39.199Z,11.50
2018-03-25T09:00:06.795Z,10.70
2018-03-25T09:02:35.128Z,10.00
2018-03-25T09:05:02.759Z,10.00
2018-03-25T09:07:30.327Z,10.10
2018-03-25T09:09:57.902Z,10.00
2018-03-25T09:12:25.487Z,9.50
2018-03-25T09:14:53.821Z,9.80
2018-03-25T09:17:21.467Z,9.80
2018-03-25T09:19:49.133Z,10.60
2018-03-25T09:22:16.809Z,11.80
2018-03-25T09:24:44.523Z,11.20
2018-03-25T09:27:12.950Z,12.00
2018-03-25T09:29:40.594Z,12.00
2018-03-25T09:32:08.249Z,13.10
2018-03-25T09:34:35.857Z,12.40
2018-03-25T09:37:03.418Z,12.80
2018-03-25T09:39:31.029Z,14.20
2018-03-25T09:41:58.591Z,12.70
2018-03-25T09:44:26.244Z,12.30
2018-03-25T09:46:53.882Z,11.10
2018-03-25T09:49:22.444Z,10.50
2018-03-25T09:51:50.043Z,10.50
2018-03-25T09:54:17.654Z,11.30
2018-03-25T09:56:46.750Z,13.00
2018-03-25T09:59:14.507Z,13.00
2018-03-25T10:01:47.713Z,13.60
2018-03-25T10:04:16.063Z,12.70
2018-03-25T10:06:43.669Z,12.70
2018-03-25T10:09:12.010Z,11.90
2018-03-25T10:11:40.413Z,11.70
2018-03-25T10:14:08.127Z,11.70
2018-03-25T10:16:35.703Z,13.70
2018-03-25T10:19:04.141Z,13.80
2018-03-25T10:21:31.744Z,13.80
2018-03-25T10:23:59.318Z,15.00
2018-03-25T10:26:28.815Z,12.70
2018-03-25T10:28:56.394Z,12.60
2018-03-25T10:31:24.961Z,13.90
2018-03-25T10:33:52.528Z,13.90
2018-03-25T10:36:20.895Z,14.50
2018-03-25T10:38:48.671Z,14.50
2018-03-25T10:41:17.132Z,13.10
2018-03-25T10:43:44.723Z,13.10
2018-03-25T10:46:12.290Z,15.20
2018-03-25T10:48:39.887Z,14.50
2018-03-25T10:51:07.455Z,13.50
2018-03-25T10:53:35.287Z,14.40
2018-03-25T10:56:02.941Z,13.90
2018-03-25T10:58:30.551Z,13.60
2018-03-25T11:00:58.172Z,13.80
2018-03-25T11:03:25.767Z,13.30
2018-03-25T11:05:54.102Z,14.00
2018-03-25T11:08:21.715Z,14.00
2018-03-25T11:10:49.299Z,14.60
2018-03-25T11:13:16.908Z,16.00
2018-03-25T11:15:44.488Z,14.50
2018-03-25T11:18:12.072Z,15.20
2018-03-25T11:20:39.674Z,14.50
2018-03-25T11:23:07.247Z,13.60
2018-03-25T11:25:34.864Z,14.60
2018-03-25T11:28:02.446Z,15.10
2018-03-25T11:30:30.048Z,15.00
2018-03-25T11:32:58.395Z,14.60
2018-03-25T11:35:26.025Z,14.60
2018-03-25T11:37:53.619Z,14.30
2018-03-25T11:40:22.018Z,14.50
2018-03-25T11:42:49.585Z,14.40
2018-03-25T11:45:17.968Z,14.10
2018-03-25T11:47:46.294Z,14.10
2018-03-25T11:50:14.102Z,14.10
2018-03-25T11:52:42.612Z,14.30
2018-03-25T11:55:10.362Z,14.30
2018-03-25T11:57:37.981Z,13.60
2018-03-25T12:00:07.051Z,14.00
2018-03-25T12:02:34.665Z,14.00
2018-03-25T12:05:03.112Z,13.90
2018-03-25T12:07:30.685Z,13.90
2018-03-25T12:09:58.348Z,13.50
2018-03-25T12:12:25.931Z,13.60
2018-03-25T12:14:53.544Z,13.10
2018-03-25T12:17:21.151Z,13.20
2018-03-25T12:19:48.758Z,14.20
2018-03-25T12:22:16.339Z,13.40
2018-03-25T12:24:44.155Z,14.10
2018-03-25T12:27:11.718Z,14.00
2018-03-25T12:29:39.310Z,13.90
2018-03-25T12:32:06.987Z,13.80
2018-03-25T12:34:35.324Z,14.00
2018-03-25T12:37:02.950Z,14.00
2018-03-25T12:39:30.507Z,13.40
2018-03-25T12:41:58.159Z,13.00
2018-03-25T12:44:26.493Z,13.40
2018-03-25T12:46:54.100Z,13.40
2018-03-25T12:49:21.703Z,13.30
2018-03-25T12:51:49.304Z,13.00
2018-03-25T12:54:17.669Z,12.90
2018-03-25T12:56:45.229Z,12.90
2018-03-25T12:59:12.864Z,13.70
2018-03-25T13:01:40.611Z,12.90
2018-03-25T13:04:08.935Z,13.30
2018-03-25T13:06:37.314Z,13.00
2018-03-25T13:09:05.643Z,13.50
2018-03-25T13:11:33.359Z,13.50
2018-03-25T13:14:01.855Z,13.20
2018-03-25T13:16:29.437Z,13.20
2018-03-25T13:18:57.092Z,14.00
2018-03-25T13:21:24.651Z,14.10
2018-03-25T13:23:52.343Z,13.80
2018-03-25T13:26:19.931Z,13.60
2018-03-25T13:28:48.284Z,13.00
2018-03-25T13:31:15.948Z,13.00
2018-03-25T13:33:43.551Z,14.40
2018-03-25T13:36:11.119Z,14.30
2018-03-25T13:38:38.728Z,13.30
2018-03-25T13:41:06.344Z,14.00
2018-03-25T13:43:33.969Z,13.90
2018-03-25T13:46:02.303Z,14.10
2018-03-25T13:48:29.895Z,14.10
2018-03-25T13:50:58.391Z,13.30
2018-03-25T13:53:26.744Z,14.10
2018-03-25T13:55:54.450Z,14.00
2018-03-25T13:58:22.226Z,13.40
2018-03-25T14:00:49.972Z,13.70
2018-03-25T14:03:17.566Z,14.20
2018-03-25T14:05:45.135Z,14.40
2018-03-25T14:08:12.746Z,14.20
2018-03-25T14:10:40.311Z,13.80
2018-03-25T14:13:08.177Z,13.30
2018-03-25T14:15:35.763Z,13.60
2018-03-25T14:18:03.378Z,13.50
2018-03-25T14:20:30.939Z,13.50
2018-03-25T14:22:58.538Z,13.30
2018-03-25T14:25:26.113Z,13.50
2018-03-25T14:27:53.734Z,14.10
2018-03-25T14:30:21.322Z,15.30
2018-03-25T14:32:48.995Z,14.30
2018-03-25T14:35:16.608Z,13.80
2018-03-25T14:37:44.297Z,14.10
2018-03-25T14:40:11.989Z,14.00
2018-03-25T14:42:39.599Z,13.50
2018-03-25T14:45:07.238Z,13.60
2018-03-25T14:47:34.923Z,13.50
2018-03-25T14:50:02.535Z,13.50
2018-03-25T14:52:30.875Z,14.00
2018-03-25T14:54:58.466Z,14.00
2018-03-25T14:57:26.028Z,16.10
2018-03-25T14:59:54.580Z,15.90
2018-03-25T15:02:22.196Z,15.80
2018-03-25T15:04:49.802Z,14.80
2018-03-25T15:07:18.899Z,13.20
2018-03-25T15:09:46.519Z,13.20
2018-03-25T15:12:14.228Z,13.10
2018-03-25T15:14:41.822Z,13.00
2018-03-25T15:17:09.414Z,13.10
2018-03-25T15:19:37.042Z,13.10
2018-03-25T15:22:05.446Z,13.20
2018-03-25T15:24:33.059Z,13.10
2018-03-25T15:27:00.774Z,13.30
2018-03-25T15:29:28.344Z,13.10
2018-03-25T15:31:55.943Z,13.30
2018-03-25T15:34:24.406Z,13.20
2018-03-25T15:36:52.131Z,13.20
2018-03-25T15:39:19.697Z,13.00
2018-03-25T15:41:47.303Z,13.00
2018-03-25T15:44:15.643Z,12.80
2018-03-25T15:46:43.267Z,12.80
2018-03-25T15:49:10.935Z,13.00
2018-03-25T15:51:38.520Z,12.90
2018-03-25T15:54:06.158Z,12.90
2018-03-25T15:56:33.716Z,13.00
2018-03-25T15:59:01.356Z,12.90
2018-03-25T16:01:28.934Z,12.80
2018-03-25T16:03:56.530Z,12.80
2018-03-25T16:06:24.119Z,12.70
2018-03-25T16:08:52.485Z,12.50
2018-03-25T16:11:21.074Z,12.60
2018-03-25T16:13:49.606Z,12.50
2018-03-25T16:16:17.239Z,12.50
2018-03-25T16:18:44.908Z,12.50
2018-03-25T16:21:12.514Z,12.50
2018-03-25T16:23:40.090Z,12.40
2018-03-25T16:26:08.611Z,12.50
2018-03-25T16:28:36.191Z,12.50
2018-03-25T16:31:03.796Z,12.30
2018-03-25T16:33:32.178Z,12.30
2018-03-25T16:36:00.571Z,12.30
2018-03-25T16:38:28.172Z,12.20
2018-03-25T16:40:55.871Z,12.20
2018-03-25T16:43:24.256Z,12.20
2018-03-25T16:45:52.598Z,12.20
2018-03-25T16:48:20.279Z,12.10
2018-03-25T16:50:48.619Z,12.10
2018-03-25T16:53:16.267Z,12.10
2018-03-25T16:55:43.847Z,12.10
2018-03-25T16:58:11.458Z,12.10
2018-03-25T17:00:39.107Z,12.00
2018-03-25T17:03:07.489Z,11.90
2018-03-25T17:05:35.818Z,11.80
2018-03-25T17:08:03.414Z,11.80
2018-03-25T17:10:31.876Z,11.70
2018-03-25T17:13:00.243Z,11.70
2018-03-25T17:15:27.942Z,11.70
2018-03-25T17:17:56.311Z,11.60
2018-03-25T17:20:24.646Z,11.60
2018-03-25T17:22:52.255Z,11.60
2018-03-25T17:25:20.603Z,11.60
2018-03-25T17:27:48.219Z,11.60
2018-03-25T17:30:15.834Z,11.50
2018-03-25T17:32:44.186Z,11.20
2018-03-25T17:35:11.779Z,11.20
2018-03-25T17:37:40.132Z,11.30
2018-03-25T17:40:07.858Z,11.30
2018-03-25T17:42:35.644Z,11.30
2018-03-25T17:45:03.243Z,11.20
2018-03-25T17:47:31.727Z,11.10
2018-03-25T17:50:00.215Z,11.10
2018-03-25T17:52:27.790Z,11.10
2018-03-25T17:54:55.431Z,11.00
2018-03-25T17:57:23.012Z,11.00
2018-03-25T17:59:50.631Z,10.90
2018-03-25T18:02:19.167Z,10.90
2018-03-25T18:04:46.783Z,10.90
2018-03-25T18:07:15.130Z,10.90
2018-03-25T18:09:42.758Z,10.80
2018-03-25T18:12:10.351Z,10.80
2018-03-25T18:14:38.000Z,10.70
2018-03-25T18:17:05.606Z,10.80
2018-03-25T18:19:33.198Z,10.90
2018-03-25T18:22:00.942Z,10.80
2018-03-25T18:24:28.585Z,10.80
2018-03-25T18:26:56.127Z,10.80
2018-03-25T18:29:24.492Z,10.70
2018-03-25T18:31:52.095Z,10.70
2018-03-25T18:34:19.694Z,10.50
2018-03-25T18:36:47.306Z,10.40
2018-03-25T18:39:14.906Z,10.50
2018-03-25T18:41:42.548Z,10.50
2018-03-25T18:44:10.129Z,10.30
2018-03-25T18:46:37.755Z,10.20
2018-03-25T18:49:05.422Z,10.30
2018-03-25T18:51:33.055Z,10.40
2018-03-25T18:54:01.427Z,10.60
2018-03-25T18:56:29.822Z,10.50
2018-03-25T18:58:57.503Z,10.50
2018-03-25T19:01:25.075Z,10.40
2018-03-25T19:03:52.701Z,10.30
2018-03-25T19:06:20.268Z,10.20
2018-03-25T19:08:47.846Z,10.10
2018-03-25T19:11:15.436Z,10.10
2018-03-25T19:13:44.607Z,10.00
2018-03-25T19:16:12.213Z,10.00
2018-03-25T19:18:40.727Z,10.30
2018-03-25T19:21:08.339Z,10.20
2018-03-25T19:23:35.931Z,10.30
2018-03-25T19:26:03.526Z,10.40
2018-03-25T19:28:31.283Z,10.40
2018-03-25T19:30:58.875Z,10.30
2018-03-25T19:33:27.368Z,10.10
2018-03-25T19:35:55.830Z,10.00
2018-03-25T19:38:23.440Z,9.90
2018-03-25T19:40:51.040Z,10.10
2018-03-25T19:43:18.657Z,10.10
2018-03-25T19:45:46.318Z,10.10
2018-03-25T19:48:13.905Z,10.00
2018-03-25T19:50:41.514Z,10.20
2018-03-25T19:53:09.113Z,10.10
2018-03-25T19:55:36.729Z,10.30
2018-03-25T19:58:05.087Z,10.00
2018-03-25T20:00:33.546Z,10.20
2018-03-25T20:03:01.283Z,10.20
2018-03-25T20:05:28.933Z,10.20
2018-03-25T20:07:56.472Z,10.20
2018-03-25T20:10:25.038Z,10.20
2018-03-25T20:12:53.375Z,10.10
2018-03-25T20:15:21.000Z,10.10
2018-03-25T20:17:48.592Z,10.00
2018-03-25T20:20:16.307Z,10.10
2018-03-25T20:22:44.688Z,10.00
2018-03-25T20:25:12.284Z,10.00
2018-03-25T20:27:39.882Z,10.00
2018-03-25T20:30:08.403Z,9.60
2018-03-25T20:32:36.169Z,9.60
2018-03-25T20:35:03.736Z,9.50
2018-03-25T20:37:31.338Z,9.70
2018-03-25T20:39:58.925Z,9.90
2018-03-25T20:42:26.547Z,9.80
2018-03-25T20:44:54.120Z,9.70
2018-03-25T20:47:21.724Z,9.70
2018-03-25T20:49:49.300Z,9.80
2018-03-25T20:52:16.884Z,9.90
2018-03-25T20:54:44.491Z,9.90
2018-03-25T20:57:12.099Z,9.80
2018-03-25T20:59:39.696Z,9.70
2018-03-25T21:02:07.268Z,9.80
2018-03-25T21:04:34.859Z,9.80
2018-03-25T21:07:02.431Z,9.80
2018-03-25T21:09:30.035Z,9.70
2018-03-25T21:11:57.742Z,9.80
2018-03-25T21:14:25.323Z,9.90
2018-03-25T21:16:52.938Z,9.60
2018-03-25T21:19:20.519Z,9.60
2018-03-25T21:21:48.180Z,9.30
2018-03-25T21:24:15.751Z,9.20
2018-03-25T21:26:43.525Z,9.40
2018-03-25T21:29:11.864Z,9.40
2018-03-25T21:31:39.463Z,9.40
2018-03-25T21:34:07.021Z,9.40
2018-03-25T21:36:35.407Z,9.20
2018-03-25T21:39:03.739Z,9.40
2018-03-25T21:41:31.310Z,9.40
2018-03-25T21:43:58.952Z,9.40
2018-03-25T21:46:26.528Z,9.20
2018-03-25T21:48:54.134Z,9.30
2018-03-25T21:51:22.498Z,9.20
2018-03-25T21:53:50.919Z,9.10
2018-03-25T21:56:18.577Z,9.10
2018-03-25T21:58:46.347Z,9.20
2018-03-25T22:01:13.964Z,8.90
2018-03-25T22:03:42.331Z,8.80
2018-03-25T22:06:10.706Z,8.60
2018-03-25T22:08:39.067Z,8.50
2018-03-25T22:11:06.627Z,8.50
2018-03-25T22:13:34.255Z,8.40
2018-03-25T22:16:01.845Z,8.40
2018-03-25T22:18:32.019Z,8.30
2018-03-25T22:20:59.607Z,8.50
2018-03-25T22:23:27.186Z,8.60
2018-03-25T22:25:54.799Z,8.50
2018-03-25T22:28:22.520Z,8.20
2018-03-25T22:30:50.120Z,8.00
2018-03-25T22:33:17.748Z,8.00
2018-03-25T22:35:46.082Z,8.20
2018-03-25T22:38:13.758Z,8.20
2018-03-25T22:40:41.447Z,8.20
2018-03-25T22:43:09.821Z,8.00
2018-03-25T22:45:38.207Z,7.90
2018-03-25T22:48:06.630Z,8.00
2018-03-25T22:50:34.236Z,7.90
2018-03-25T22:53:02.671Z,8.10
2018-03-25T22:55:30.374Z,8.10
2018-03-25T22:57:58.732Z,7.90
2018-03-25T23:00:27.095Z,8.00
2018-03-25T23:02:54.670Z,7.90
2018-03-25T23:05:22.284Z,8.20
2018-03-25T23:07:50.048Z,8.30
2018-03-25T23:10:17.727Z,8.20
2018-03-25T23:12:45.335Z,8.20
2018-03-25T23:15:13.688Z,8.20
2018-03-25T23:17:41.295Z,8.20
2018-03-25T23:20:08.864Z,8.10
2018-03-25T23:22:36.482Z,8.10
2018-03-25T23:25:04.823Z,7.90
2018-03-25T23:27:32.531Z,7.90
2018-03-25T23:30:00.900Z,7.90
2018-03-25T23:32:29.314Z,7.90
2018-03-25T23:34:56.884Z,7.90
2018-03-25T23:37:24.672Z,7.90
2018-03-25T23:39:52.327Z,7.70
2018-03-25T23:42:19.954Z,7.60
2018-03-25T23:44:47.519Z,7.50
2018-03-25T23:47:15.103Z,7.40
2018-03-25T23:49:42.718Z,7.10
2018-03-25T23:52:10.302Z,7.00
2018-03-25T23:54:37.890Z,6.90
2018-03-25T23:57:05.474Z,6.80
2018-03-25T23:59:33.931Z,6.60
